Time;durP1;ratioP1;P1;durP2;ratioP2;P2;SDS_P1;SDS_P2;PMS_P1;PMS_P2;Temp;Humidity;BMP_temperature;BMP_pressure;BME280_temperature;BME280_humidity;BME280_pressure;Samples;Min_cycle;Max_cycle;Signal;HPM_P1;HPM_P2
2024/04/12 00:01:06;;;;;;;7.25;3.65;;;;;;;14.81;47.33;94948.38;5540148;26;20001;-72
2024/04/12 00:03:31;;;;;;;9.07;3.50;;;;;;;14.78;47.35;94933.72;5540160;25;19992;-72
2024/04/12 00:06:00;;;;;;;9.32;3.67;;;;;;;14.80;47.85;94938.75;5540141;25;20014;-72
2024/04/12 00:08:28;;;;;;;9.23;3.95;;;;;;;14.71;47.80;94941.41;5539719;25;20203;-72
2024/04/12 00:11:00;;;;;;;5.90;3.28;;;;;;;14.72;47.76;94947.59;5539753;25;20129;-73
2024/04/12 00:13:26;;;;;;;7.40;3.70;;;;;;;14.68;48.19;94933.22;5539766;25;20030;-73
2024/04/12 00:15:58;;;;;;;14.88;4.03;;;;;;;14.63;49.12;94948.38;5539752;26;19986;-72
2024/04/12 00:18:26;;;;;;;9.63;3.40;;;;;;;14.61;48.92;94955.94;5539865;26;19993;-73
2024/04/12 00:21:00;;;;;;;7.30;3.80;;;;;;;14.58;48.46;94945.03;5540113;26;20088;-73
2024/04/12 00:23:26;;;;;;;6.35;3.50;;;;;;;14.57;48.60;94960.34;5539626;25;20053;-73
2024/04/12 00:25:55;;;;;;;7.32;3.50;;;;;;;14.56;48.05;94961.44;5539616;26;19985;-73
2024/04/12 00:28:22;;;;;;;7.68;3.95;;;;;;;14.51;48.17;94966.91;5539661;26;20142;-73
2024/04/12 00:30:48;;;;;;;9.00;4.85;;;;;;;14.36;48.59;94967.31;5539556;25;19996;-73
2024/04/12 00:33:19;;;;;;;8.90;5.05;;;;;;;14.23;49.13;94958.28;5539468;26;20037;-73
2024/04/12 00:35:49;;;;;;;14.07;5.13;;;;;;;14.09;49.86;94962.94;5539452;25;19985;-73
2024/04/12 00:38:16;;;;;;;7.47;4.00;;;;;;;13.91;50.36;94970.88;5539663;25;19989;-73
2024/04/12 00:40:45;;;;;;;9.32;4.50;;;;;;;13.80;50.38;94972.25;5539392;26;20177;-73
2024/04/12 00:43:16;;;;;;;6.90;3.75;;;;;;;13.79;50.44;94971.44;5539184;26;20197;-73
2024/04/12 00:45:45;;;;;;;8.88;4.30;;;;;;;13.76;49.60;94969.38;5539653;26;19994;-73
2024/04/12 00:48:11;;;;;;;10.82;3.60;;;;;;;13.72;49.29;94959.56;5539211;26;20000;-73
2024/04/12 00:50:37;;;;;;;11.43;3.90;;;;;;;13.76;49.45;94961.34;5539568;25;20017;-73
2024/04/12 00:53:09;;;;;;;8.52;3.50;;;;;;;13.74;49.42;94960.84;5539807;25;19998;-73
2024/04/12 00:55:39;;;;;;;5.93;3.60;;;;;;;13.71;49.63;94966.03;5539793;26;19985;-73
2024/04/12 00:58:15;;;;;;;12.95;4.43;;;;;;;13.74;49.63;94971.56;5539406;26;19985;-72
2024/04/12 01:00:46;;;;;;;9.98;4.00;;;;;;;13.73;49.81;94975.34;5539041;26;19989;-73
2024/04/12 01:03:15;;;;;;;9.15;4.03;;;;;;;13.72;50.51;94968.41;5538194;25;20226;-72
2024/04/12 01:05:40;;;;;;;8.27;4.20;;;;;;;13.72;50.85;94957.69;5538230;25;19981;-72
2024/04/12 01:08:06;;;;;;;10.80;3.63;;;;;;;13.77;49.69;94967.50;5538745;25;20009;-73
2024/04/12 01:10:36;;;;;;;9.07;4.03;;;;;;;13.75;49.17;94967.00;5539039;26;20145;-72
2024/04/12 01:13:04;;;;;;;5.95;3.28;;;;;;;13.75;49.06;94965.09;5538796;25;19982;-73
2024/04/12 01:15:37;;;;;;;11.30;3.30;;;;;;;13.75;49.43;94962.44;5538751;25;20124;-73
2024/04/12 01:18:04;;;;;;;7.22;3.60;;;;;;;13.76;49.43;94966.69;5538879;26;20033;-73
2024/04/12 01:20:35;;;;;;;10.82;3.58;;;;;;;13.83;48.90;94958.22;5538586;26;19982;-73
2024/04/12 01:23:00;;;;;;;7.95;2.92;;;;;;;13.89;48.95;94959.69;5538605;25;20200;-73
2024/04/12 01:25:28;;;;;;;7.32;3.80;;;;;;;13.88;48.88;94960.78;5538735;26;19989;-73
2024/04/12 01:27:55;;;;;;;10.63;3.38;;;;;;;13.90;48.98;94963.97;5538273;25;20204;-73
2024/04/12 01:30:21;;;;;;;8.93;4.45;;;;;;;13.87;48.96;94953.84;5538350;25;19993;-73
2024/04/12 01:32:50;;;;;;;7.32;3.53;;;;;;;13.86;48.98;94962.97;5538710;25;20092;-73
2024/04/12 01:35:16;;;;;;;10.90;3.60;;;;;;;13.92;48.83;94961.75;5538645;25;20001;-73
2024/04/12 01:37:43;;;;;;;8.85;3.40;;;;;;;13.97;48.60;94952.78;5538383;26;19994;-72
2024/04/12 01:40:12;;;;;;;14.93;3.58;;;;;;;14.03;48.43;94959.59;5538360;26;19985;-73
2024/04/12 01:42:43;;;;;;;11.68;3.58;;;;;;;14.08;48.73;94956.78;5538158;25;19986;-73
2024/04/12 01:45:14;;;;;;;12.80;3.50;;;;;;;14.12;48.96;94955.06;5538274;26;19993;-73
2024/04/12 01:47:42;;;;;;;6.53;3.55;;;;;;;14.11;49.26;94958.06;5538157;26;19993;-73
2024/04/12 01:50:08;;;;;;;9.82;3.50;;;;;;;14.16;49.32;94961.38;5537955;26;20113;-73
2024/04/12 01:52:49;;;;;;;12.27;3.35;;;;;;;14.18;49.12;94950.34;5538497;26;19990;-73
2024/04/12 01:55:18;;;;;;;7.95;3.40;;;;;;;14.12;49.94;94963.09;5538185;26;19988;-74
2024/04/12 01:57:49;;;;;;;9.13;4.03;;;;;;;14.10;50.33;94959.16;5538351;26;20010;-72
2024/04/12 02:00:17;;;;;;;4.97;3.38;;;;;;;14.10;50.33;94957.25;5538084;26;19981;-72
2024/04/12 02:02:43;;;;;;;5.80;3.58;;;;;;;14.07;51.06;94957.88;5537768;26;20045;-72
2024/04/12 02:05:09;;;;;;;7.38;4.18;;;;;;;14.03;51.43;94970.31;5538361;26;19989;-72
2024/04/12 02:07:39;;;;;;;7.32;3.72;;;;;;;14.00;51.68;94963.69;5537953;26;19981;-73
2024/04/12 02:10:11;;;;;;;9.05;4.25;;;;;;;13.93;52.19;94962.53;5537793;26;19982;-72
2024/04/12 02:12:40;;;;;;;8.98;3.97;;;;;;;13.89;52.32;94964.25;5537655;26;19985;-72
2024/04/12 02:15:23;;;;;;;8.95;3.95;;;;;;;13.85;52.50;94959.50;5506794;26;20100;-73
2024/04/12 02:17:54;;;;;;;12.73;3.75;;;;;;;13.86;53.09;94960.31;5541546;26;20092;-73
2024/04/12 02:20:20;;;;;;;6.30;3.42;;;;;;;13.81;53.11;94961.19;5541280;26;19985;-74
2024/04/12 02:22:49;;;;;;;5.85;3.78;;;;;;;13.76;53.60;94969.38;5541392;25;19989;-73
2024/04/12 02:25:17;;;;;;;7.55;4.25;;;;;;;13.73;54.57;94963.84;5541632;25;20021;-73
2024/04/12 02:27:44;;;;;;;8.48;3.80;;;;;;;13.67;54.79;94971.19;5541765;25;19985;-73
2024/04/12 02:30:11;;;;;;;9.38;4.97;;;;;;;13.61;54.60;94967.06;5541174;25;20049;-73
2024/04/12 02:32:37;;;;;;;9.48;5.05;;;;;;;13.60;55.07;94970.84;5541143;25;20189;-73
2024/04/12 02:35:03;;;;;;;8.20;4.53;;;;;;;13.55;55.43;94963.72;5541630;26;20003;-74
2024/04/12 02:37:29;;;;;;;6.45;4.13;;;;;;;13.53;55.31;94965.13;5541474;26;20062;-73
2024/04/12 02:39:54;;;;;;;7.28;4.30;;;;;;;13.53;54.73;94968.56;5541274;26;20001;-73
2024/04/12 02:42:22;;;;;;;8.65;4.40;;;;;;;13.55;55.03;94960.25;5540832;26;19985;-72
2024/04/12 02:44:47;;;;;;;10.88;4.03;;;;;;;13.55;54.74;94962.94;5541466;25;19992;-72
2024/04/12 02:47:16;;;;;;;10.07;4.25;;;;;;;13.54;54.60;94966.72;5541123;25;19981;-73
2024/04/12 02:49:43;;;;;;;8.23;3.50;;;;;;;13.54;54.36;94961.34;5541123;26;19989;-72
2024/04/12 02:52:09;;;;;;;6.20;3.28;;;;;;;13.55;53.86;94974.41;5541234;26;20006;-72
2024/04/12 02:54:35;;;;;;;15.20;4.05;;;;;;;13.58;53.76;94962.31;5540977;26;20003;-76
2024/04/12 02:57:02;;;;;;;6.68;3.92;;;;;;;13.61;53.86;94964.38;5541093;25;20005;-73
2024/04/12 02:59:28;;;;;;;9.35;3.85;;;;;;;13.64;53.86;94975.28;5541187;26;19989;-73
2024/04/12 03:01:54;;;;;;;9.50;4.45;;;;;;;13.65;53.66;94974.19;5541070;26;20038;-73
2024/04/12 03:04:19;;;;;;;12.05;3.85;;;;;;;13.65;54.12;94979.53;5541026;26;20100;-72
2024/04/12 03:06:45;;;;;;;11.02;4.22;;;;;;;13.67;53.79;94978.47;5541365;26;19985;-72
2024/04/12 03:09:11;;;;;;;8.60;4.50;;;;;;;13.65;54.02;94974.19;5541020;26;19994;-73
2024/04/12 03:11:37;;;;;;;13.00;4.07;;;;;;;13.65;54.02;94968.03;5541217;26;19992;-73
2024/04/12 03:14:04;;;;;;;8.80;4.28;;;;;;;13.67;53.88;94973.09;5541073;25;20035;-73
2024/04/12 03:16:31;;;;;;;8.30;4.25;;;;;;;13.68;53.50;94967.44;5541234;26;20018;-72
2024/04/12 03:18:57;;;;;;;14.40;4.93;;;;;;;13.66;53.93;94975.00;5508982;26;20201;-72
2024/04/12 03:21:30;;;;;;;10.77;4.63;;;;;;;13.62;54.01;94969.44;5540236;25;19989;-74
2024/04/12 03:23:57;;;;;;;9.20;3.58;;;;;;;13.61;54.12;94975.09;5540250;26;20066;-72
2024/04/12 03:26:26;;;;;;;7.90;4.40;;;;;;;13.58;54.22;94978.41;5539969;25;20045;-72
2024/04/12 03:28:58;;;;;;;8.35;3.40;;;;;;;13.55;55.05;94979.00;5539714;25;20196;-73
2024/04/12 03:31:27;;;;;;;13.90;4.20;;;;;;;13.50;55.31;94977.22;5540691;25;20081;-72
2024/04/12 03:33:56;;;;;;;9.10;3.85;;;;;;;13.46;54.66;94972.78;5540375;26;20089;-73
2024/04/12 03:36:26;;;;;;;5.78;3.65;;;;;;;13.41;54.36;94979.84;5540252;25;19989;-72
2024/04/12 03:42:05;;;;;;;11.23;4.20;;;;;;;13.38;54.97;94990.38;5540034;25;19986;-73
2024/04/12 03:44:31;;;;;;;7.60;3.75;;;;;;;13.38;55.49;94993.84;5540465;25;19982;-74
2024/04/12 03:47:00;;;;;;;11.15;4.00;;;;;;;13.35;55.59;94986.41;5539989;26;20124;-72
2024/04/12 03:49:28;;;;;;;9.77;4.00;;;;;;;13.31;55.61;95001.50;5539601;25;20006;-73
2024/04/12 03:51:55;;;;;;;10.32;4.60;;;;;;;13.28;55.67;95002.06;5540209;26;20133;-72
2024/04/12 03:54:21;;;;;;;13.80;5.07;;;;;;;13.24;56.59;95004.53;5540081;25;19985;-72
2024/04/12 03:56:49;;;;;;;11.55;5.28;;;;;;;13.22;57.17;95003.28;5539926;25;20092;-73
2024/04/12 03:59:27;;;;;;;14.65;5.32;;;;;;;13.19;57.21;95010.03;5539416;26;20094;-72
2024/04/12 04:01:54;;;;;;;13.38;4.43;;;;;;;13.15;57.71;95008.25;5539800;26;20204;-73
2024/04/12 04:04:25;;;;;;;18.30;4.75;;;;;;;13.13;57.76;95010.44;5539728;26;19986;-73
2024/04/12 04:06:54;;;;;;;15.98;5.63;;;;;;;13.07;58.07;95011.63;5539952;25;19985;-73
2024/04/12 04:09:26;;;;;;;14.75;5.40;;;;;;;12.99;58.64;95013.94;5539753;26;20018;-73
2024/04/12 04:11:55;;;;;;;13.15;5.13;;;;;;;12.93;59.11;95022.38;5539621;26;19989;-73
2024/04/12 04:14:25;;;;;;;13.68;5.00;;;;;;;12.99;58.81;95016.59;5539801;25;19989;-72
2024/04/12 04:16:52;;;;;;;11.77;5.60;;;;;;;13.04;58.98;95016.47;5539302;25;19985;-73
2024/04/12 04:19:30;;;;;;;15.18;5.32;;;;;;;13.08;59.12;95027.38;5539668;26;20029;-72
2024/04/12 04:22:39;;;;;;;12.13;6.05;;;;;;;13.11;59.43;95023.31;5539609;26;19990;-72
2024/04/12 04:25:08;;;;;;;12.52;4.80;;;;;;;13.16;58.53;95020.53;5539512;25;20077;-72
2024/04/12 04:27:34;;;;;;;7.50;3.70;;;;;;;13.20;58.00;95018.84;5507962;26;19993;-72
2024/04/12 04:30:01;;;;;;;13.75;4.93;;;;;;;13.24;57.77;95020.59;5539117;25;20055;-72
2024/04/12 04:32:27;;;;;;;11.82;4.00;;;;;;;13.33;57.35;95025.28;5539226;25;20009;-72
2024/04/12 04:35:11;;;;;;;10.60;3.65;;;;;;;13.40;57.20;95025.69;5539618;25;19992;-73
2024/04/12 04:37:40;;;;;;;8.27;3.65;;;;;;;13.44;56.98;95022.09;5539795;25;20041;-73
2024/04/12 04:40:12;;;;;;;15.25;4.40;;;;;;;13.47;56.80;95020.69;5539122;26;20086;-73
2024/04/12 04:42:38;;;;;;;10.82;3.92;;;;;;;13.55;56.22;95027.22;5507804;26;20037;-73
2024/04/12 04:45:07;;;;;;;8.30;3.97;;;;;;;13.64;56.28;95028.88;5539846;26;19996;-74
2024/04/12 04:47:40;;;;;;;15.82;4.10;;;;;;;13.71;56.09;95025.75;5539687;25;20153;-74
2024/04/12 04:50:08;;;;;;;10.57;4.60;;;;;;;13.84;55.91;95032.19;5539561;25;20086;-74
2024/04/12 04:52:37;;;;;;;13.63;3.33;;;;;;;13.91;55.52;95029.84;5539453;26;19990;-74
2024/04/12 04:55:06;;;;;;;16.08;3.72;;;;;;;13.98;54.96;95026.72;5539806;26;20004;-73
2024/04/12 04:57:35;;;;;;;20.15;4.97;;;;;;;14.05;55.35;95029.78;5539460;26;20106;-73
2024/04/12 05:00:06;;;;;;;19.17;5.80;;;;;;;14.10;55.59;95029.63;5539295;26;19981;-74
2024/04/12 05:02:35;;;;;;;26.35;7.95;;;;;;;14.16;56.25;95036.47;5539018;25;19985;-73
2024/04/12 05:05:04;;;;;;;29.42;5.82;;;;;;;14.22;56.15;95031.75;5539281;25;20095;-74
2024/04/12 05:07:34;;;;;;;21.90;5.70;;;;;;;14.19;55.87;95033.19;5507687;26;20037;-73
2024/04/12 05:10:14;;;;;;;20.88;5.50;;;;;;;14.27;55.89;95036.19;5538861;25;20038;-74
2024/04/12 05:12:42;;;;;;;16.98;5.72;;;;;;;14.30;55.28;95036.38;5538780;26;19989;-73
2024/04/12 05:15:30;;;;;;;14.43;5.97;;;;;;;14.35;54.80;95044.31;5538823;25;19985;-74
2024/04/12 05:18:02;;;;;;;19.98;6.00;;;;;;;14.45;54.98;95040.56;5538844;26;19985;-74
2024/04/12 05:20:38;;;;;;;16.83;6.57;;;;;;;14.50;55.10;95055.75;5538932;26;19985;-74
2024/04/12 05:23:11;;;;;;;23.35;7.43;;;;;;;14.54;54.38;95052.13;5538900;26;19993;-74
2024/04/12 05:25:40;;;;;;;22.83;6.60;;;;;;;14.57;53.70;95045.38;5538927;26;19982;-74
2024/04/12 05:28:06;;;;;;;30.83;7.32;;;;;;;14.62;53.63;95048.72;5538984;26;19982;-73
2024/04/12 05:30:41;;;;;;;22.20;6.30;;;;;;;14.64;54.09;95045.75;5538741;25;19997;-74
2024/04/12 05:33:08;;;;;;;30.30;8.65;;;;;;;14.68;55.01;95049.38;5538750;26;19990;-74
2024/04/12 05:35:34;;;;;;;36.92;7.97;;;;;;;14.70;54.21;95051.75;5538350;26;20014;-74
2024/04/12 05:38:07;;;;;;;40.95;8.80;;;;;;;14.65;54.08;95047.31;5538729;26;20038;-73
2024/04/12 05:40:39;;;;;;;31.60;8.00;;;;;;;14.62;53.80;95054.09;5538955;26;19993;-73
2024/04/12 05:43:13;;;;;;;;;;;;;;;14.57;53.34;95051.56;5507016;26;19985;-73
2024/04/12 05:45:39;;;;;;;42.67;8.32;;;;;;;14.54;53.52;95054.81;5538646;25;19927;-74
2024/04/12 05:48:12;;;;;;;29.83;8.15;;;;;;;14.60;53.63;95055.50;5507144;26;19989;-74
2024/04/12 05:50:39;;;;;;;30.90;8.63;;;;;;;14.61;54.03;95046.34;5537615;25;20041;-73
2024/04/12 05:53:11;;;;;;;30.45;9.55;;;;;;;14.62;54.90;95056.78;5538313;25;19985;-71
2024/04/12 05:55:52;;;;;;;37.97;8.93;;;;;;;14.60;53.96;95050.13;5538290;26;19997;-73
2024/04/12 05:58:18;;;;;;;20.48;8.90;;;;;;;14.64;53.51;95059.16;5538043;25;20317;-73
2024/04/12 06:00:47;;;;;;;25.00;8.98;;;;;;;14.70;53.91;95049.09;5538168;25;19989;-72
2024/04/12 06:03:14;;;;;;;35.80;8.27;;;;;;;14.76;53.81;95055.88;5538069;25;19985;-72
2024/04/12 06:05:46;;;;;;;28.05;8.65;;;;;;;14.80;54.14;95051.50;5537735;26;20209;-73
2024/04/12 06:08:15;;;;;;;27.70;8.82;;;;;;;14.87;54.17;95049.13;5537704;26;19985;-74
2024/04/12 06:10:44;;;;;;;54.90;9.60;;;;;;;14.95;53.77;95053.72;5538264;26;20001;-74
2024/04/12 06:13:11;;;;;;;28.95;9.80;;;;;;;15.05;53.86;95055.34;5538167;25;20060;-74
2024/04/12 06:15:37;;;;;;;39.35;9.52;;;;;;;15.16;53.88;95055.84;5537981;26;19990;-75
2024/04/12 06:18:05;;;;;;;24.33;9.60;;;;;;;15.25;53.52;95053.97;5538334;25;19986;-74
2024/04/12 06:20:34;;;;;;;35.70;8.95;;;;;;;15.38;53.69;95053.03;5537402;25;20201;-74
2024/04/12 06:23:06;;;;;;;29.55;9.80;;;;;;;15.38;54.02;95052.25;5537844;25;20055;-74
2024/04/12 06:25:43;;;;;;;35.10;10.20;;;;;;;15.40;53.68;95060.78;5537821;26;19985;-74
2024/04/12 06:28:13;;;;;;;24.70;10.20;;;;;;;15.41;53.86;95055.09;5537975;26;19982;-84
2024/04/12 06:30:41;;;;;;;28.85;9.88;;;;;;;15.42;54.18;95059.38;5537510;26;19982;-75
2024/04/12 06:33:07;;;;;;;38.40;10.25;;;;;;;15.50;53.65;95054.31;5537585;26;19981;-76
2024/04/12 06:35:36;;;;;;;27.42;10.13;;;;;;;15.57;54.10;95050.06;5537843;26;20057;-75
2024/04/12 06:38:08;;;;;;;31.30;8.82;;;;;;;15.67;53.70;95048.94;5537555;26;19981;-75
2024/04/12 06:40:34;;;;;;;31.17;9.98;;;;;;;15.78;53.29;95052.94;5537802;25;20009;-75
2024/04/12 06:43:05;;;;;;;32.30;9.60;;;;;;;15.86;52.81;95050.59;5537102;25;19986;-74
2024/04/12 06:45:44;;;;;;;23.25;8.60;;;;;;;16.01;52.89;95050.88;5537549;25;20110;-75
2024/04/12 06:48:16;;;;;;;21.70;7.05;;;;;;;16.07;50.84;95056.88;5537703;25;20033;-75
2024/04/12 06:50:52;;;;;;;;;;;;;;;16.19;51.81;95059.72;5537648;26;20001;-78
2024/04/12 06:53:21;;;;;;;20.27;6.82;;;;;;;16.22;51.08;95059.09;5505705;26;19925;-78
2024/04/12 06:55:46;;;;;;;26.40;6.82;;;;;;;16.36;49.34;95044.63;5537026;26;20008;-79
2024/04/12 06:58:12;;;;;;;15.65;6.70;;;;;;;16.41;47.80;95055.25;5537561;26;19992;-78
2024/04/12 07:00:38;;;;;;;23.30;5.68;;;;;;;16.45;47.74;95056.97;5537322;26;19989;-78
2024/04/12 07:03:08;;;;;;;23.63;6.15;;;;;;;16.56;47.96;95052.03;5540289;25;19993;-79
2024/04/12 07:05:33;;;;;;;8.75;5.18;;;;;;;16.65;46.10;95052.78;5540566;25;19994;-79
2024/04/12 07:08:01;;;;;;;18.95;5.65;;;;;;;16.73;46.61;95055.75;5540799;26;19996;-79
2024/04/12 07:10:27;;;;;;;11.70;4.68;;;;;;;16.79;46.28;95055.28;5540620;26;20092;-79
2024/04/12 07:12:55;;;;;;;17.17;4.55;;;;;;;16.91;46.32;95051.91;5541085;26;20005;-76
2024/04/12 07:15:21;;;;;;;17.52;4.85;;;;;;;17.00;45.34;95047.28;5508599;26;20121;-80
2024/04/12 07:17:47;;;;;;;14.32;4.60;;;;;;;17.10;43.70;95051.53;5540607;26;20017;-81
2024/04/12 07:20:22;;;;;;;18.58;5.10;;;;;;;17.25;44.56;95044.78;5540494;25;19999;-81
2024/04/12 07:22:49;;;;;;;12.40;4.57;;;;;;;17.35;44.24;95049.00;5539951;25;19982;-81
2024/04/12 07:25:15;;;;;;;10.38;3.92;;;;;;;17.42;43.20;95046.56;5540313;25;19988;-81
2024/04/12 07:27:41;;;;;;;10.32;4.15;;;;;;;17.57;42.79;95045.22;5540354;26;19989;-82
2024/04/12 07:30:08;;;;;;;10.63;4.57;;;;;;;17.72;41.82;95050.00;5540323;25;20196;-82
2024/04/12 07:32:35;;;;;;;14.65;3.88;;;;;;;17.90;41.34;95052.59;5540252;25;20073;-82
2024/04/12 07:35:09;;;;;;;8.85;3.78;;;;;;;18.08;39.83;95054.03;5539931;25;19986;-81
2024/04/12 07:37:36;;;;;;;11.05;3.97;;;;;;;18.18;38.73;95042.81;5540926;26;20009;-81
2024/04/12 07:40:20;;;;;;;8.60;3.45;;;;;;;18.24;38.46;95044.19;5540413;25;19993;-81
2024/04/12 07:42:50;;;;;;;17.88;4.03;;;;;;;18.30;38.36;95041.25;5540406;25;19982;-81
2024/04/12 07:45:23;;;;;;;7.47;3.67;;;;;;;18.37;37.89;95044.22;5508622;26;20006;-81
2024/04/12 07:47:53;;;;;;;11.68;3.75;;;;;;;18.36;37.96;95040.75;5540288;25;19989;-81
2024/04/12 07:50:31;;;;;;;13.43;3.92;;;;;;;18.38;38.34;95037.72;5540455;26;19982;-81
2024/04/12 07:55:44;;;;;;;8.35;4.05;;;;;;;18.59;38.20;95026.84;5540184;25;20096;-80
2024/04/12 07:58:16;;;;;;;7.43;3.83;;;;;;;18.65;38.21;95030.91;5508962;26;19989;-83
2024/04/12 08:00:47;;;;;;;7.32;3.47;;;;;;;18.73;38.22;95030.00;5540399;26;19985;-81
2024/04/12 08:03:16;;;;;;;9.05;4.07;;;;;;;18.84;38.23;95041.97;5540881;25;19985;-81
2024/04/12 08:06:03;;;;;;;12.80;4.03;;;;;;;18.88;37.45;95036.69;5540281;25;19981;-81
2024/04/12 08:08:46;;;;;;;9.55;4.25;;;;;;;18.96;37.42;95021.50;5508647;26;19985;-81
2024/04/12 08:11:33;;;;;;;9.85;3.80;;;;;;;19.03;38.09;95032.50;5540110;25;20078;-82
2024/04/12 08:14:06;;;;;;;10.27;3.67;;;;;;;19.12;37.62;95030.50;5539308;25;20237;-82
2024/04/12 08:16:46;;;;;;;12.25;4.15;;;;;;;19.14;37.24;95025.53;5540494;25;19985;-81
2024/04/12 08:19:21;;;;;;;29.15;4.53;;;;;;;19.22;36.81;95038.13;5540443;25;19982;-82
2024/04/12 08:21:47;;;;;;;20.30;4.65;;;;;;;19.24;37.32;95027.00;5540570;25;19981;-82
2024/04/12 08:24:22;;;;;;;11.95;4.38;;;;;;;19.27;37.66;95037.13;5539683;25;19981;-81
2024/04/12 08:26:51;;;;;;;16.02;4.03;;;;;;;19.29;37.20;95040.25;5508564;25;20006;-82
2024/04/12 08:29:28;;;;;;;16.40;4.30;;;;;;;19.29;36.61;95034.84;5540107;26;19985;-81
2024/04/12 08:32:04;;;;;;;11.40;4.00;;;;;;;19.28;36.99;95033.28;5539936;26;20041;-81
2024/04/12 08:34:33;;;;;;;11.90;3.95;;;;;;;19.36;37.37;95037.78;5540453;25;19985;-81
2024/04/12 08:37:03;;;;;;;10.77;4.13;;;;;;;19.41;37.62;95025.94;5539987;26;19997;-82
2024/04/12 08:39:42;;;;;;;12.52;3.80;;;;;;;19.53;36.78;95027.84;5539964;26;19988;-82
2024/04/12 08:42:10;;;;;;;9.90;3.97;;;;;;;19.62;36.97;95025.78;5539368;26;19992;-81
2024/04/12 08:44:37;;;;;;;21.35;4.38;;;;;;;19.72;36.97;95022.66;5539751;25;19982;-81
2024/04/12 08:47:30;;;;;;;16.35;4.63;;;;;;;19.84;36.32;95022.63;5508399;26;19992;-79
2024/04/12 08:50:07;;;;;;;7.05;4.22;;;;;;;19.84;35.97;95019.09;5508408;25;19992;-80
2024/04/12 08:52:43;;;;;;;11.50;4.38;;;;;;;19.82;36.12;95015.97;5539837;25;20029;-80
2024/04/12 08:55:13;;;;;;;9.05;4.03;;;;;;;19.82;35.88;95014.06;5539478;25;20205;-79
2024/04/12 08:57:43;;;;;;;15.43;4.65;;;;;;;19.90;36.67;95016.94;5539619;26;19985;-80
2024/04/12 09:00:18;;;;;;;14.30;4.40;;;;;;;19.96;36.84;95007.47;5539440;26;19996;-80
2024/04/12 09:02:51;;;;;;;16.88;4.15;;;;;;;20.02;35.73;95009.56;5539499;25;20013;-80
2024/04/12 09:05:22;;;;;;;12.85;4.32;;;;;;;19.98;35.48;95008.69;5539209;25;20049;-80
2024/04/12 09:07:51;;;;;;;12.43;4.57;;;;;;;19.93;35.74;95003.53;5539180;26;20088;-81
2024/04/12 09:10:20;;;;;;;14.05;3.75;;;;;;;19.94;36.36;95001.59;5539343;26;19985;-80
2024/04/12 09:12:49;;;;;;;15.18;4.05;;;;;;;20.00;36.63;95002.94;5539073;25;19993;-81
2024/04/12 09:15:24;;;;;;;16.83;4.47;;;;;;;20.17;36.60;95002.63;5539041;25;19993;-81
2024/04/12 09:17:59;;;;;;;15.52;4.40;;;;;;;20.28;36.42;95010.25;5538831;26;20025;-81
2024/04/12 09:20:31;;;;;;;16.73;4.40;;;;;;;20.38;35.31;94998.91;5539303;26;19989;-81
2024/04/12 09:23:13;;;;;;;13.60;4.03;;;;;;;20.55;35.85;94990.44;5539152;25;20434;-80
2024/04/12 09:25:44;;;;;;;28.48;6.80;;;;;;;20.73;35.45;94990.13;5506095;26;19992;-81
2024/04/12 09:28:13;;;;;;;7.38;4.45;;;;;;;20.82;34.90;94988.00;5538873;25;20092;-80
2024/04/12 09:33:27;;;;;;;11.98;4.75;;;;;;;21.10;34.94;94978.97;5539061;25;20207;-82
2024/04/12 09:36:03;;;;;;;16.35;4.43;;;;;;;21.16;34.16;94975.63;5538696;25;19996;-81
2024/04/12 09:38:31;;;;;;;10.40;4.38;;;;;;;21.22;34.34;94984.28;5538946;25;19981;-81
2024/04/12 09:41:03;;;;;;;12.90;4.55;;;;;;;21.25;34.94;94978.19;5538618;25;20018;-81
2024/04/12 09:43:31;;;;;;;9.77;4.57;;;;;;;21.30;34.24;94977.88;5538858;25;19989;-80
2024/04/12 09:46:08;;;;;;;13.10;4.97;;;;;;;21.35;34.44;94968.69;5537994;25;20004;-80
2024/04/12 10:38:34;;;;;;;9.13;4.20;;;;;;;22.98;31.76;94938.72;5541955;26;20045;-85
2024/04/12 10:41:19;;;;;;;12.57;4.30;;;;;;;23.11;31.10;94931.16;5542340;26;19985;-82
2024/04/12 10:43:45;;;;;;;9.25;4.05;;;;;;;23.13;30.53;94928.84;5539624;25;20092;-81
2024/04/12 10:46:11;;;;;;;16.40;4.78;;;;;;;23.09;31.42;94933.47;5541157;25;20021;-81
2024/04/12 10:48:42;;;;;;;8.23;3.55;;;;;;;23.11;30.62;94923.78;5509627;26;19996;-82
2024/04/12 10:51:08;;;;;;;13.65;4.35;;;;;;;23.23;32.12;94933.66;5542280;26;20050;-82
2024/04/12 10:53:38;;;;;;;25.33;4.07;;;;;;;23.33;31.08;94924.88;5539109;26;20197;-81
2024/04/12 10:56:07;;;;;;;12.75;5.25;;;;;;;23.43;30.26;94918.78;5539329;25;19985;-82
2024/04/12 10:58:33;;;;;;;29.83;4.15;;;;;;;23.50;30.26;94917.28;5538456;25;19989;-81
2024/04/12 11:01:04;;;;;;;17.83;3.80;;;;;;;23.52;29.92;94915.75;5538120;25;19989;-82
2024/04/12 11:03:29;;;;;;;14.32;3.75;;;;;;;23.45;29.82;94904.81;5539093;26;20063;-82
2024/04/12 11:06:17;;;;;;;7.63;3.30;;;;;;;23.47;30.06;94909.84;5539328;25;20248;-82
2024/04/12 11:08:41;;;;;;;10.70;3.60;;;;;;;23.52;29.87;94906.81;5537737;26;19981;-82
2024/04/12 11:11:17;;;;;;;14.75;4.30;;;;;;;23.55;29.67;94897.91;5507097;26;19993;-82
2024/04/12 11:13:46;;;;;;;15.27;3.88;;;;;;;23.45;29.46;94896.66;5506866;26;19986;-81
2024/04/12 11:32:42;;;;;;;13.73;4.45;;;;;;;23.32;29.81;94879.75;5541768;25;20014;-81
2024/04/12 11:35:11;;;;;;;21.85;4.78;;;;;;;23.38;29.75;94882.94;5541673;26;19989;-81
2024/04/12 11:37:55;;;;;;;10.00;3.80;;;;;;;23.41;29.77;94880.28;5541620;26;20013;-84
2024/04/12 11:40:21;;;;;;;11.65;4.45;;;;;;;23.59;29.45;94875.03;5541427;25;19988;-82
2024/04/12 11:42:47;;;;;;;14.07;3.92;;;;;;;23.79;30.97;94872.97;5541316;25;19982;-82
2024/04/12 11:45:17;;;;;;;12.80;3.72;;;;;;;24.11;29.96;94856.13;5541253;25;19982;-82
2024/04/12 11:47:44;;;;;;;14.57;3.30;;;;;;;24.38;28.99;94864.94;5508554;26;19996;-82
2024/04/12 11:50:12;;;;;;;13.25;4.05;;;;;;;24.60;29.40;94860.44;5509219;26;20088;-80
2024/04/12 11:52:39;;;;;;;12.73;3.97;;;;;;;24.79;28.05;94850.44;5540938;25;19996;-81
2024/04/12 11:55:06;;;;;;;15.25;4.05;;;;;;;24.79;27.67;94850.44;5509882;25;19993;-82
2024/04/12 11:57:36;;;;;;;12.40;4.20;;;;;;;24.80;28.51;94847.34;5509750;26;19981;-81
2024/04/12 12:00:10;;;;;;;8.27;3.50;;;;;;;24.94;28.30;94846.66;5541208;25;20085;-82
2024/04/12 12:02:36;;;;;;;8.85;3.55;;;;;;;25.12;27.59;94840.53;5509582;26;19986;-82
2024/04/12 12:05:04;;;;;;;12.27;3.70;;;;;;;25.23;27.79;94830.44;5540868;25;19990;-82
2024/04/12 12:07:30;;;;;;;8.43;3.60;;;;;;;25.34;27.00;94835.94;5540666;25;20005;-81
2024/04/12 12:09:56;;;;;;;12.07;4.43;;;;;;;25.56;27.61;94836.78;5540741;26;19996;-81
2024/04/12 12:12:22;;;;;;;9.50;3.60;;;;;;;25.66;26.71;94836.03;5541359;25;19985;-84
2024/04/12 12:14:51;;;;;;;12.30;3.45;;;;;;;25.87;26.90;94834.53;5543027;25;19981;-83
2024/04/12 12:17:18;;;;;;;12.23;3.47;;;;;;;26.02;26.42;94834.19;5541365;25;20089;-82
2024/04/12 12:19:51;;;;;;;15.63;3.90;;;;;;;26.26;26.92;94828.38;5541311;26;19982;-84
2024/04/12 12:22:18;;;;;;;8.07;3.78;;;;;;;26.33;25.10;94820.94;5540837;25;19986;-82
2024/04/12 12:24:44;;;;;;;8.38;3.55;;;;;;;26.34;25.22;94824.47;5541017;26;20009;-84
2024/04/12 12:27:09;;;;;;;9.27;3.47;;;;;;;26.40;26.14;94822.91;5541269;26;19993;-82
2024/04/12 12:29:36;;;;;;;19.35;4.88;;;;;;;26.35;24.68;94815.09;5541466;25;20009;-83
2024/04/12 12:32:04;;;;;;;8.98;3.42;;;;;;;26.20;24.81;94815.09;5541117;26;19989;-83
2024/04/12 12:34:33;;;;;;;11.70;3.28;;;;;;;26.13;25.44;94819.75;5541163;26;20014;-84
2024/04/12 12:36:59;;;;;;;9.13;3.33;;;;;;;26.30;25.58;94808.06;5509496;26;20001;-83
2024/04/12 12:39:31;;;;;;;10.75;3.05;;;;;;;26.51;25.50;94801.03;5541134;26;19985;-83
2024/04/12 12:42:05;;;;;;;8.27;3.78;;;;;;;26.73;25.21;94810.00;5508763;26;20029;-83
2024/04/12 12:44:30;;;;;;;10.23;3.05;;;;;;;26.94;24.76;94806.41;5541254;26;20042;-83
2024/04/12 12:47:02;;;;;;;11.00;3.17;;;;;;;27.05;23.67;94792.69;5508921;26;19993;-82
2024/04/12 12:49:33;;;;;;;8.48;3.17;;;;;;;27.17;23.25;94787.59;5508985;25;19981;-85
2024/04/12 12:51:59;;;;;;;8.82;3.20;;;;;;;27.18;24.53;94782.88;5508989;26;20137;-84
2024/04/12 12:54:26;;;;;;;24.77;3.88;;;;;;;27.32;24.46;94785.59;5509009;26;20021;-84
2024/04/12 12:56:53;;;;;;;8.60;3.20;;;;;;;27.39;24.08;94787.50;5540916;26;19985;-84